sensor_id;sensor_type;location;lat;lon;timestamp;temperature;humidity
47514;DHT22;33951;51.988;5.910;2023-07-20T04:08:05;15.40;99.90
47514;DHT22;33951;51.988;5.910;2023-07-20T04:10:51;15.30;99.90
47514;DHT22;33951;51.988;5.910;2023-07-20T04:13:56;15.30;99.90
47514;DHT22;33951;51.988;5.910;2023-07-20T04:17:00;15.20;99.90
47514;DHT22;33951;51.988;5.910;2023-07-20T04:19:41;15.30;99.90
47514;DHT22;33951;51.988;5.910;2023-07-20T04:28:25;15.20;99.90
47514;DHT22;33951;51.988;5.910;2023-07-20T04:31:23;15.20;99.90
47514;DHT22;33951;51.988;5.910;2023-07-20T04:37:04;15.20;99.90
47514;DHT22;33951;51.988;5.910;2023-07-20T04:39:51;15.20;99.90
47514;DHT22;33951;51.988;5.910;2023-07-20T04:42:49;15.10;99.90
47514;DHT22;33951;51.988;5.910;2023-07-20T04:52:06;14.90;99.90
47514;DHT22;33951;51.988;5.910;2023-07-20T04:58:28;14.90;99.90
47514;DHT22;33951;51.988;5.910;2023-07-20T05:01:46;14.90;99.90
47514;DHT22;33951;51.988;5.910;2023-07-20T05:11:33;15.20;99.90
47514;DHT22;33951;51.988;5.910;2023-07-20T05:18:18;15.30;99.90
47514;DHT22;33951;51.988;5.910;2023-07-20T05:43:28;15.30;99.90
47514;DHT22;33951;51.988;5.910;2023-07-20T06:07:22;16.10;99.90
47514;DHT22;33951;51.988;5.910;2023-07-20T06:09:48;16.20;99.90
47514;DHT22;33951;51.988;5.910;2023-07-20T06:12:14;16.20;99.90
47514;DHT22;33951;51.988;5.910;2023-07-20T06:15:34;16.30;99.90
47514;DHT22;33951;51.988;5.910;2023-07-20T06:18:03;16.30;99.90
47514;DHT22;33951;51.988;5.910;2023-07-20T06:30:40;16.30;99.90
47514;DHT22;33951;51.988;5.910;2023-07-20T06:33:42;16.40;99.90
47514;DHT22;33951;51.988;5.910;2023-07-20T06:39:48;16.70;99.90
47514;DHT22;33951;51.988;5.910;2023-07-20T06:46:28;16.90;99.90
47514;DHT22;33951;51.988;5.910;2023-07-20T06:49:44;16.90;99.90
47514;DHT22;33951;51.988;5.910;2023-07-20T07:09:56;16.90;99.90
47514;DHT22;33951;51.988;5.910;2023-07-20T08:16:44;17.90;99.90
47514;DHT22;33951;51.988;5.910;2023-07-20T09:13:06;19.80;99.90
47514;DHT22;33951;51.988;5.910;2023-07-20T09:18:34;19.70;99.90
47514;DHT22;33951;51.988;5.910;2023-07-20T09:21:18;19.80;99.90
47514;DHT22;33951;51.988;5.910;2023-07-20T09:23:56;20.00;99.90
47514;DHT22;33951;51.988;5.910;2023-07-20T09:29:56;20.10;99.90
47514;DHT22;33951;51.988;5.910;2023-07-20T09:32:45;20.10;99.90
47514;DHT22;33951;51.988;5.910;2023-07-20T09:35:34;20.20;99.90
47514;DHT22;33951;51.988;5.910;2023-07-20T09:38:09;20.40;99.90
47514;DHT22;33951;51.988;5.910;2023-07-20T09:41:12;20.40;99.90
47514;DHT22;33951;51.988;5.910;2023-07-20T09:44:01;20.50;99.90
47514;DHT22;33951;51.988;5.910;2023-07-20T09:46:54;20.40;99.90
47514;DHT22;33951;51.988;5.910;2023-07-20T09:49:59;20.50;99.90
47514;DHT22;33951;51.988;5.910;2023-07-20T09:52:26;20.70;99.90
47514;DHT22;33951;51.988;5.910;2023-07-20T09:54:55;20.90;99.90
47514;DHT22;33951;51.988;5.910;2023-07-20T09:57:26;21.10;99.90
47514;DHT22;33951;51.988;5.910;2023-07-20T09:59:51;21.00;99.90
47514;DHT22;33951;51.988;5.910;2023-07-20T10:02:28;20.70;99.90
47514;DHT22;33951;51.988;5.910;2023-07-20T10:11:16;20.50;99.90
47514;DHT22;33951;51.988;5.910;2023-07-20T10:13:46;20.60;99.90
47514;DHT22;33951;51.988;5.910;2023-07-20T10:16:28;20.50;99.90
47514;DHT22;33951;51.988;5.910;2023-07-20T10:21:26;20.70;99.90
47514;DHT22;33951;51.988;5.910;2023-07-20T10:24:01;21.10;99.90
47514;DHT22;33951;51.988;5.910;2023-07-20T10:26:42;21.30;99.90
47514;DHT22;33951;51.988;5.910;2023-07-20T10:29:18;21.30;99.90
47514;DHT22;33951;51.988;5.910;2023-07-20T10:31:57;21.00;99.90
47514;DHT22;33951;51.988;5.910;2023-07-20T10:34:41;21.10;99.90
47514;DHT22;33951;51.988;5.910;2023-07-20T10:37:10;21.40;99.90
47514;DHT22;33951;51.988;5.910;2023-07-20T10:39:35;21.70;99.90
47514;DHT22;33951;51.988;5.910;2023-07-20T10:42:03;22.00;99.90
47514;DHT22;33951;51.988;5.910;2023-07-20T10:44:34;21.90;99.90
47514;DHT22;33951;51.988;5.910;2023-07-20T10:47:09;22.00;99.90
47514;DHT22;33951;51.988;5.910;2023-07-20T10:49:59;21.80;99.90
47514;DHT22;33951;51.988;5.910;2023-07-20T10:53:09;21.80;99.90
47514;DHT22;33951;51.988;5.910;2023-07-20T10:55:35;22.30;99.90
47514;DHT22;33951;51.988;5.910;2023-07-20T10:58:13;22.30;99.90
47514;DHT22;33951;51.988;5.910;2023-07-20T11:01:03;22.40;99.90
47514;DHT22;33951;51.988;5.910;2023-07-20T11:03:48;22.50;99.90
47514;DHT22;33951;51.988;5.910;2023-07-20T11:09:10;22.40;99.90
47514;DHT22;33951;51.988;5.910;2023-07-20T11:12:15;22.60;99.90
47514;DHT22;33951;51.988;5.910;2023-07-20T11:15:01;22.60;99.90
47514;DHT22;33951;51.988;5.910;2023-07-20T11:17:31;22.70;99.90
47514;DHT22;33951;51.988;5.910;2023-07-20T11:19:59;22.80;99.90
47514;DHT22;33951;51.988;5.910;2023-07-20T11:22:34;22.80;99.90
47514;DHT22;33951;51.988;5.910;2023-07-20T11:24:59;22.40;99.90
47514;DHT22;33951;51.988;5.910;2023-07-20T11:27:25;22.40;99.90
47514;DHT22;33951;51.988;5.910;2023-07-20T11:29:54;22.40;99.90
47514;DHT22;33951;51.988;5.910;2023-07-20T11:32:23;22.30;99.90
47514;DHT22;33951;51.988;5.910;2023-07-20T11:35:03;22.40;99.90
47514;DHT22;33951;51.988;5.910;2023-07-20T11:37:49;22.90;99.90
47514;DHT22;33951;51.988;5.910;2023-07-20T11:40:17;23.30;99.90
47514;DHT22;33951;51.988;5.910;2023-07-20T11:42:46;23.30;99.90
47514;DHT22;33951;51.988;5.910;2023-07-20T11:45:25;22.90;99.90
47514;DHT22;33951;51.988;5.910;2023-07-20T11:47:55;22.90;99.90
47514;DHT22;33951;51.988;5.910;2023-07-20T11:50:24;22.80;99.90
47514;DHT22;33951;51.988;5.910;2023-07-20T11:52:57;22.70;99.90
47514;DHT22;33951;51.988;5.910;2023-07-20T11:55:44;22.30;99.90
47514;DHT22;33951;51.988;5.910;2023-07-20T11:58:11;22.30;99.90
47514;DHT22;33951;51.988;5.910;2023-07-20T12:01:18;22.30;99.90
47514;DHT22;33951;51.988;5.910;2023-07-20T12:03:48;22.10;99.90
47514;DHT22;33951;51.988;5.910;2023-07-20T12:06:22;22.10;99.90
47514;DHT22;33951;51.988;5.910;2023-07-20T12:08:51;22.20;99.90
47514;DHT22;33951;51.988;5.910;2023-07-20T12:11:38;22.50;99.90
47514;DHT22;33951;51.988;5.910;2023-07-20T12:14:07;22.80;99.90
47514;DHT22;33951;51.988;5.910;2023-07-20T12:16:39;23.30;99.90
47514;DHT22;33951;51.988;5.910;2023-07-20T12:19:11;23.60;99.90
47514;DHT22;33951;51.988;5.910;2023-07-20T12:21:38;23.60;99.90
47514;DHT22;33951;51.988;5.910;2023-07-20T12:24:06;23.70;99.90
47514;DHT22;33951;51.988;5.910;2023-07-20T12:26:36;23.60;99.90
47514;DHT22;33951;51.988;5.910;2023-07-20T12:29:03;23.70;99.90
47514;DHT22;33951;51.988;5.910;2023-07-20T12:31:30;23.90;99.90
47514;DHT22;33951;51.988;5.910;2023-07-20T12:33:59;24.20;99.90
47514;DHT22;33951;51.988;5.910;2023-07-20T12:36:28;24.10;99.90
47514;DHT22;33951;51.988;5.910;2023-07-20T12:38:57;24.00;99.90
47514;DHT22;33951;51.988;5.910;2023-07-20T12:41:23;24.10;99.90
47514;DHT22;33951;51.988;5.910;2023-07-20T12:43:58;24.50;99.90
47514;DHT22;33951;51.988;5.910;2023-07-20T12:46:30;24.90;99.90
47514;DHT22;33951;51.988;5.910;2023-07-20T12:49:18;24.70;99.70
47514;DHT22;33951;51.988;5.910;2023-07-20T12:52:18;24.80;99.90
47514;DHT22;33951;51.988;5.910;2023-07-20T12:54:46;24.90;99.30
47514;DHT22;33951;51.988;5.910;2023-07-20T12:57:19;24.80;99.70
47514;DHT22;33951;51.988;5.910;2023-07-20T13:00:08;25.10;99.60
47514;DHT22;33951;51.988;5.910;2023-07-20T13:02:38;25.30;99.20
47514;DHT22;33951;51.988;5.910;2023-07-20T13:05:04;25.40;98.60
47514;DHT22;33951;51.988;5.910;2023-07-20T13:07:48;25.40;98.80
47514;DHT22;33951;51.988;5.910;2023-07-20T13:10:14;25.10;99.50
47514;DHT22;33951;51.988;5.910;2023-07-20T13:13:02;25.10;99.10
47514;DHT22;33951;51.988;5.910;2023-07-20T13:15:48;25.20;99.20
47514;DHT22;33951;51.988;5.910;2023-07-20T13:18:14;25.40;98.70
47514;DHT22;33951;51.988;5.910;2023-07-20T13:20:40;25.20;98.80
47514;DHT22;33951;51.988;5.910;2023-07-20T13:23:08;25.20;98.70
47514;DHT22;33951;51.988;5.910;2023-07-20T13:25:40;25.20;98.80
47514;DHT22;33951;51.988;5.910;2023-07-20T13:28:08;25.10;98.80
47514;DHT22;33951;51.988;5.910;2023-07-20T13:30:34;25.10;98.90
47514;DHT22;33951;51.988;5.910;2023-07-20T13:33:05;25.20;98.70
47514;DHT22;33951;51.988;5.910;2023-07-20T13:35:37;25.30;98.60
47514;DHT22;33951;51.988;5.910;2023-07-20T13:38:09;25.30;98.10
47514;DHT22;33951;51.988;5.910;2023-07-20T13:40:38;25.30;98.80
47514;DHT22;33951;51.988;5.910;2023-07-20T13:43:07;25.20;97.30
47514;DHT22;33951;51.988;5.910;2023-07-20T13:45:50;25.40;98.00
47514;DHT22;33951;51.988;5.910;2023-07-20T13:48:22;25.60;97.70
47514;DHT22;33951;51.988;5.910;2023-07-20T13:50:48;25.20;98.30
47514;DHT22;33951;51.988;5.910;2023-07-20T13:53:16;25.40;97.40
47514;DHT22;33951;51.988;5.910;2023-07-20T13:55:50;25.40;98.00
47514;DHT22;33951;51.988;5.910;2023-07-20T13:58:26;25.50;98.30
47514;DHT22;33951;51.988;5.910;2023-07-20T14:00:55;25.50;98.00
47514;DHT22;33951;51.988;5.910;2023-07-20T14:03:23;25.20;97.50
47514;DHT22;33951;51.988;5.910;2023-07-20T14:05:55;24.80;97.70
47514;DHT22;33951;51.988;5.910;2023-07-20T14:08:43;24.40;98.00
47514;DHT22;33951;51.988;5.910;2023-07-20T14:11:15;24.30;98.60
47514;DHT22;33951;51.988;5.910;2023-07-20T14:13:52;24.00;99.20
47514;DHT22;33951;51.988;5.910;2023-07-20T14:16:37;23.90;99.40
47514;DHT22;33951;51.988;5.910;2023-07-20T14:19:03;24.00;99.90
47514;DHT22;33951;51.988;5.910;2023-07-20T14:21:34;24.10;99.10
47514;DHT22;33951;51.988;5.910;2023-07-20T14:24:09;24.10;98.60
47514;DHT22;33951;51.988;5.910;2023-07-20T14:26:40;24.00;98.70
47514;DHT22;33951;51.988;5.910;2023-07-20T14:29:11;23.80;99.00
47514;DHT22;33951;51.988;5.910;2023-07-20T14:31:47;23.70;98.80
47514;DHT22;33951;51.988;5.910;2023-07-20T14:34:19;23.70;98.90
47514;DHT22;33951;51.988;5.910;2023-07-20T14:36:47;24.00;98.70
47514;DHT22;33951;51.988;5.910;2023-07-20T14:39:16;24.10;98.80
47514;DHT22;33951;51.988;5.910;2023-07-20T14:41:53;24.00;98.60
47514;DHT22;33951;51.988;5.910;2023-07-20T14:44:19;24.00;99.10
47514;DHT22;33951;51.988;5.910;2023-07-20T14:46:47;23.90;98.60
47514;DHT22;33951;51.988;5.910;2023-07-20T14:49:13;23.90;99.00
47514;DHT22;33951;51.988;5.910;2023-07-20T14:54:20;24.60;98.00
47514;DHT22;33951;51.988;5.910;2023-07-20T14:56:51;24.60;98.40
47514;DHT22;33951;51.988;5.910;2023-07-20T14:59:18;24.60;98.70
47514;DHT22;33951;51.988;5.910;2023-07-20T15:01:47;24.40;97.90
47514;DHT22;33951;51.988;5.910;2023-07-20T15:04:14;24.50;98.50
47514;DHT22;33951;51.988;5.910;2023-07-20T15:06:49;24.60;98.20
47514;DHT22;33951;51.988;5.910;2023-07-20T15:09:15;24.80;97.40
47514;DHT22;33951;51.988;5.910;2023-07-20T15:11:43;25.20;98.30
47514;DHT22;33951;51.988;5.910;2023-07-20T15:14:12;25.60;97.50
47514;DHT22;33951;51.988;5.910;2023-07-20T15:16:47;25.60;96.70
47514;DHT22;33951;51.988;5.910;2023-07-20T15:19:13;25.40;97.60
47514;DHT22;33951;51.988;5.910;2023-07-20T15:21:45;25.60;96.90
47514;DHT22;33951;51.988;5.910;2023-07-20T15:24:14;25.20;97.90
47514;DHT22;33951;51.988;5.910;2023-07-20T15:26:42;24.80;97.00
47514;DHT22;33951;51.988;5.910;2023-07-20T15:29:10;24.60;97.50
47514;DHT22;33951;51.988;5.910;2023-07-20T15:31:48;24.70;97.70
47514;DHT22;33951;51.988;5.910;2023-07-20T15:51:22;24.60;97.60
47514;DHT22;33951;51.988;5.910;2023-07-20T16:00:05;24.10;99.10
47514;DHT22;33951;51.988;5.910;2023-07-20T16:03:02;23.90;98.30
47514;DHT22;33951;51.988;5.910;2023-07-20T16:06:04;23.90;98.10
47514;DHT22;33951;51.988;5.910;2023-07-20T16:08:53;24.00;98.50
47514;DHT22;33951;51.988;5.910;2023-07-20T16:21:15;23.60;98.30
47514;DHT22;33951;51.988;5.910;2023-07-20T16:30:29;23.40;99.10
47514;DHT22;33951;51.988;5.910;2023-07-20T16:33:23;23.60;99.30
47514;DHT22;33951;51.988;5.910;2023-07-20T16:36:31;23.40;99.10
47514;DHT22;33951;51.988;5.910;2023-07-20T16:52:59;22.40;99.40
47514;DHT22;33951;51.988;5.910;2023-07-20T17:05:48;22.60;99.30
47514;DHT22;33951;51.988;5.910;2023-07-20T17:08:20;22.60;99.90
47514;DHT22;33951;51.988;5.910;2023-07-20T17:11:06;22.50;99.60
47514;DHT22;33951;51.988;5.910;2023-07-20T17:13:45;22.70;99.70
47514;DHT22;33951;51.988;5.910;2023-07-20T17:16:27;22.80;98.90
47514;DHT22;33951;51.988;5.910;2023-07-20T17:19:14;22.70;99.80
47514;DHT22;33951;51.988;5.910;2023-07-20T17:22:04;22.60;99.90
47514;DHT22;33951;51.988;5.910;2023-07-20T17:25:03;22.40;99.90
47514;DHT22;33951;51.988;5.910;2023-07-20T17:27:35;22.40;99.90
47514;DHT22;33951;51.988;5.910;2023-07-20T17:34:40;22.30;99.90
47514;DHT22;33951;51.988;5.910;2023-07-20T17:41:01;22.20;99.90
47514;DHT22;33951;51.988;5.910;2023-07-20T17:43:55;22.30;99.90
47514;DHT22;33951;51.988;5.910;2023-07-20T17:53:49;21.50;99.90
47514;DHT22;33951;51.988;5.910;2023-07-20T18:00:42;21.50;99.90
47514;DHT22;33951;51.988;5.910;2023-07-20T18:23:09;22.00;99.90
47514;DHT22;33951;51.988;5.910;2023-07-20T18:41:52;21.70;99.90
47514;DHT22;33951;51.988;5.910;2023-07-20T18:49:11;21.70;99.90
47514;DHT22;33951;51.988;5.910;2023-07-20T19:09:01;21.20;99.90
47514;DHT22;33951;51.988;5.910;2023-07-20T19:11:59;21.20;99.90
47514;DHT22;33951;51.988;5.910;2023-07-20T19:17:50;21.40;99.90
47514;DHT22;33951;51.988;5.910;2023-07-20T19:20:27;21.30;99.90
47514;DHT22;33951;51.988;5.910;2023-07-20T19:26:21;20.30;99.90
47514;DHT22;33951;51.988;5.910;2023-07-20T19:28:46;20.10;99.90
47514;DHT22;33951;51.988;5.910;2023-07-20T19:31:44;20.10;99.90
47514;DHT22;33951;51.988;5.910;2023-07-20T19:34:15;20.10;99.90
47514;DHT22;33951;51.988;5.910;2023-07-20T19:40:18;19.80;99.90
47514;DHT22;33951;51.988;5.910;2023-07-20T19:43:18;20.10;99.90
47514;DHT22;33951;51.988;5.910;2023-07-20T19:46:06;20.20;99.90
47514;DHT22;33951;51.988;5.910;2023-07-20T19:48:37;20.30;99.90
47514;DHT22;33951;51.988;5.910;2023-07-20T19:51:02;20.30;99.90
47514;DHT22;33951;51.988;5.910;2023-07-20T19:53:42;20.40;99.90
47514;DHT22;33951;51.988;5.910;2023-07-20T19:56:16;20.30;99.90
47514;DHT22;33951;51.988;5.910;2023-07-20T20:02:19;20.30;99.90
47514;DHT22;33951;51.988;5.910;2023-07-20T20:04:50;20.00;99.90
47514;DHT22;33951;51.988;5.910;2023-07-20T20:10:17;20.20;99.90
47514;DHT22;33951;51.988;5.910;2023-07-20T20:12:46;20.30;99.90
47514;DHT22;33951;51.988;5.910;2023-07-20T20:15:11;20.30;99.90
47514;DHT22;33951;51.988;5.910;2023-07-20T20:17:47;20.20;99.90
47514;DHT22;33951;51.988;5.910;2023-07-20T20:20:15;20.00;99.90
47514;DHT22;33951;51.988;5.910;2023-07-20T20:23:30;20.00;99.90
47514;DHT22;33951;51.988;5.910;2023-07-20T20:29:35;20.00;99.90
47514;DHT22;33951;51.988;5.910;2023-07-20T20:32:23;20.00;99.90
47514;DHT22;33951;51.988;5.910;2023-07-20T20:35:13;20.20;99.90
47514;DHT22;33951;51.988;5.910;2023-07-20T20:37:38;20.10;99.90
47514;DHT22;33951;51.988;5.910;2023-07-20T20:40:05;20.00;99.90
47514;DHT22;33951;51.988;5.910;2023-07-20T20:42:31;20.10;99.90
47514;DHT22;33951;51.988;5.910;2023-07-20T20:44:59;20.10;99.90
47514;DHT22;33951;51.988;5.910;2023-07-20T20:47:28;20.00;99.90
47514;DHT22;33951;51.988;5.910;2023-07-20T20:50:00;20.00;99.90
47514;DHT22;33951;51.988;5.910;2023-07-20T20:52:31;19.90;99.90
47514;DHT22;33951;51.988;5.910;2023-07-20T20:55:02;19.80;99.90
47514;DHT22;33951;51.988;5.910;2023-07-20T20:57:29;19.70;99.90
47514;DHT22;33951;51.988;5.910;2023-07-20T20:59:55;19.70;99.90
47514;DHT22;33951;51.988;5.910;2023-07-20T21:02:21;19.50;99.90
47514;DHT22;33951;51.988;5.910;2023-07-20T21:04:57;19.60;99.90
47514;DHT22;33951;51.988;5.910;2023-07-20T21:07:33;19.60;99.90
47514;DHT22;33951;51.988;5.910;2023-07-20T21:09:59;19.60;99.90
47514;DHT22;33951;51.988;5.910;2023-07-20T21:12:28;19.60;99.90
47514;DHT22;33951;51.988;5.910;2023-07-20T21:14:56;19.40;99.90
47514;DHT22;33951;51.988;5.910;2023-07-20T21:17:35;19.40;99.90
47514;DHT22;33951;51.988;5.910;2023-07-20T21:20:01;19.20;99.90
47514;DHT22;33951;51.988;5.910;2023-07-20T21:22:27;19.10;99.90
47514;DHT22;33951;51.988;5.910;2023-07-20T21:24:58;19.00;99.90
47514;DHT22;33951;51.988;5.910;2023-07-20T21:27:24;19.20;99.90
47514;DHT22;33951;51.988;5.910;2023-07-20T21:29:50;19.00;99.90
47514;DHT22;33951;51.988;5.910;2023-07-20T21:32:16;19.00;99.90
47514;DHT22;33951;51.988;5.910;2023-07-20T21:34:43;19.00;99.90
47514;DHT22;33951;51.988;5.910;2023-07-20T21:37:17;19.00;99.90
47514;DHT22;33951;51.988;5.910;2023-07-20T21:39:42;18.90;99.90
47514;DHT22;33951;51.988;5.910;2023-07-20T21:42:12;18.90;99.90
47514;DHT22;33951;51.988;5.910;2023-07-20T21:44:37;18.80;99.90
47514;DHT22;33951;51.988;5.910;2023-07-20T21:47:03;18.80;99.90
47514;DHT22;33951;51.988;5.910;2023-07-20T21:49:29;18.80;99.90
47514;DHT22;33951;51.988;5.910;2023-07-20T21:51:55;18.80;99.90
47514;DHT22;33951;51.988;5.910;2023-07-20T21:54:23;18.70;99.90
47514;DHT22;33951;51.988;5.910;2023-07-20T21:56:48;18.70;99.90
47514;DHT22;33951;51.988;5.910;2023-07-20T21:59:14;18.60;99.90
47514;DHT22;33951;51.988;5.910;2023-07-20T22:01:40;18.60;99.90
47514;DHT22;33951;51.988;5.910;2023-07-20T22:04:06;18.70;99.90
47514;DHT22;33951;51.988;5.910;2023-07-20T22:06:33;18.70;99.90
47514;DHT22;33951;51.988;5.910;2023-07-20T22:08:59;18.80;99.90
47514;DHT22;33951;51.988;5.910;2023-07-20T22:11:25;18.70;99.90
47514;DHT22;33951;51.988;5.910;2023-07-20T22:13:50;18.50;99.90
47514;DHT22;33951;51.988;5.910;2023-07-20T22:16:16;18.50;99.90
47514;DHT22;33951;51.988;5.910;2023-07-20T22:18:42;18.60;99.90
47514;DHT22;33951;51.988;5.910;2023-07-20T22:21:09;18.70;99.90
47514;DHT22;33951;51.988;5.910;2023-07-20T22:23:36;18.70;99.90
47514;DHT22;33951;51.988;5.910;2023-07-20T22:26:06;18.70;99.90
47514;DHT22;33951;51.988;5.910;2023-07-20T22:28:32;18.60;99.90
47514;DHT22;33951;51.988;5.910;2023-07-20T22:30:58;18.60;99.90
47514;DHT22;33951;51.988;5.910;2023-07-20T22:33:34;18.60;99.90
47514;DHT22;33951;51.988;5.910;2023-07-20T22:36:23;18.60;99.90
47514;DHT22;33951;51.988;5.910;2023-07-20T22:41:42;18.60;99.90
47514;DHT22;33951;51.988;5.910;2023-07-20T22:44:16;18.60;99.90
47514;DHT22;33951;51.988;5.910;2023-07-20T22:46:55;18.50;99.90
47514;DHT22;33951;51.988;5.910;2023-07-20T22:49:30;18.50;99.90
47514;DHT22;33951;51.988;5.910;2023-07-20T22:52:05;18.60;99.90
47514;DHT22;33951;51.988;5.910;2023-07-20T22:54:44;18.70;99.90
47514;DHT22;33951;51.988;5.910;2023-07-20T23:00:00;18.70;99.90
47514;DHT22;33951;51.988;5.910;2023-07-20T23:02:29;18.90;99.90
47514;DHT22;33951;51.988;5.910;2023-07-20T23:22:45;18.80;99.90
47514;DHT22;33951;51.988;5.910;2023-07-20T23:26:01;18.70;99.90
47514;DHT22;33951;51.988;5.910;2023-07-20T23:29:12;18.70;99.90
47514;DHT22;33951;51.988;5.910;2023-07-20T23:32:18;18.80;99.90
47514;DHT22;33951;51.988;5.910;2023-07-20T23:35:15;18.80;99.90
47514;DHT22;33951;51.988;5.910;2023-07-20T23:41:48;18.70;99.90
47514;DHT22;33951;51.988;5.910;2023-07-20T23:51:50;18.60;99.90
47514;DHT22;33951;51.988;5.910;2023-07-20T23:57:38;18.50;99.90
